Baldwinville, Massachusetts
Current Conditions -  °F | °C
As of 6:52 PM on Monday 24 Nov 2014 (Local Time) from KORE Reporting Station
Scattered Clouds Scattered Clouds  
Wind Chill: 16°   Ceiling: Unl
Heat Index: 16°   Visibility: 10mi
Dew Point: 14°   Wind: 16mph
Humidity: 87%   Direction: 190°S
Pressure: 29.61"   Gusts: 24mph
Location:  42.62°N, 72.08°W
Report Text: KORE 242352Z AUTO 19014G21KT 10SM SCT016 16/14 A2961 RMK AO2 SLP030 60000 T01610139 10172 20156 51026
Loading
Personal Weather Stations






























Interactive Weather Map New forecast layout! Learn more

10-Day Weather Forecast

Advertisements
Track Severe Weather on mobile